sensor_id;sensor_type;location;lat;lon;timestamp;temperature;humidity
14786;DHT22;7484;49.906;9.058;2023-03-23T00:01:26;14.70;99.90
14786;DHT22;7484;49.906;9.058;2023-03-23T00:03:58;14.80;99.90
14786;DHT22;7484;49.906;9.058;2023-03-23T00:06:26;14.70;99.90
14786;DHT22;7484;49.906;9.058;2023-03-23T00:08:58;14.70;99.90
14786;DHT22;7484;49.906;9.058;2023-03-23T00:11:28;14.70;99.90
14786;DHT22;7484;49.906;9.058;2023-03-23T00:13:56;14.60;99.90
14786;DHT22;7484;49.906;9.058;2023-03-23T00:16:28;14.60;99.90
14786;DHT22;7484;49.906;9.058;2023-03-23T00:19:04;14.70;99.90
14786;DHT22;7484;49.906;9.058;2023-03-23T00:21:34;14.70;99.90
14786;DHT22;7484;49.906;9.058;2023-03-23T00:24:04;14.60;99.90
14786;DHT22;7484;49.906;9.058;2023-03-23T00:26:31;14.60;99.90
14786;DHT22;7484;49.906;9.058;2023-03-23T00:29:00;14.60;99.90
14786;DHT22;7484;49.906;9.058;2023-03-23T00:31:28;14.60;99.90
14786;DHT22;7484;49.906;9.058;2023-03-23T00:33:58;14.50;99.90
14786;DHT22;7484;49.906;9.058;2023-03-23T00:36:27;14.50;99.90
14786;DHT22;7484;49.906;9.058;2023-03-23T00:38:54;14.50;99.90
14786;DHT22;7484;49.906;9.058;2023-03-23T00:41:23;14.50;99.90
14786;DHT22;7484;49.906;9.058;2023-03-23T00:43:52;14.50;99.90
14786;DHT22;7484;49.906;9.058;2023-03-23T00:46:19;14.50;99.90
14786;DHT22;7484;49.906;9.058;2023-03-23T00:48:46;14.50;99.90
14786;DHT22;7484;49.906;9.058;2023-03-23T00:51:14;14.50;99.90
14786;DHT22;7484;49.906;9.058;2023-03-23T00:53:42;14.60;99.90
14786;DHT22;7484;49.906;9.058;2023-03-23T00:56:09;14.50;99.90
14786;DHT22;7484;49.906;9.058;2023-03-23T00:58:35;14.50;99.90
14786;DHT22;7484;49.906;9.058;2023-03-23T01:01:03;14.50;99.90
14786;DHT22;7484;49.906;9.058;2023-03-23T01:03:30;14.60;99.90
14786;DHT22;7484;49.906;9.058;2023-03-23T01:06:04;14.50;99.90
14786;DHT22;7484;49.906;9.058;2023-03-23T01:08:34;14.50;99.90
14786;DHT22;7484;49.906;9.058;2023-03-23T01:11:05;14.50;99.90
14786;DHT22;7484;49.906;9.058;2023-03-23T01:13:33;14.50;99.90
14786;DHT22;7484;49.906;9.058;2023-03-23T01:16:00;14.50;99.90
14786;DHT22;7484;49.906;9.058;2023-03-23T01:18:26;14.50;99.90
14786;DHT22;7484;49.906;9.058;2023-03-23T01:20:53;14.40;99.90
14786;DHT22;7484;49.906;9.058;2023-03-23T01:23:20;14.50;99.90
14786;DHT22;7484;49.906;9.058;2023-03-23T01:25:48;14.50;99.90
14786;DHT22;7484;49.906;9.058;2023-03-23T01:28:15;14.50;99.90
14786;DHT22;7484;49.906;9.058;2023-03-23T01:30:42;14.40;99.90
14786;DHT22;7484;49.906;9.058;2023-03-23T01:33:08;14.40;99.90
14786;DHT22;7484;49.906;9.058;2023-03-23T01:35:37;14.40;99.90
14786;DHT22;7484;49.906;9.058;2023-03-23T01:38:04;14.50;99.90
14786;DHT22;7484;49.906;9.058;2023-03-23T01:40:31;14.50;99.90
14786;DHT22;7484;49.906;9.058;2023-03-23T01:42:59;14.60;99.90
14786;DHT22;7484;49.906;9.058;2023-03-23T01:45:29;14.60;99.90
14786;DHT22;7484;49.906;9.058;2023-03-23T01:48:11;14.70;99.90
14786;DHT22;7484;49.906;9.058;2023-03-23T01:50:46;14.80;99.90
14786;DHT22;7484;49.906;9.058;2023-03-23T01:53:15;14.80;99.90
14786;DHT22;7484;49.906;9.058;2023-03-23T01:55:43;14.80;99.90
14786;DHT22;7484;49.906;9.058;2023-03-23T01:58:17;14.80;99.90
14786;DHT22;7484;49.906;9.058;2023-03-23T02:00:45;14.70;99.90
14786;DHT22;7484;49.906;9.058;2023-03-23T02:03:14;14.60;99.90
14786;DHT22;7484;49.906;9.058;2023-03-23T02:05:43;14.60;99.90
14786;DHT22;7484;49.906;9.058;2023-03-23T02:08:19;14.60;99.90
14786;DHT22;7484;49.906;9.058;2023-03-23T02:10:46;14.60;99.90
14786;DHT22;7484;49.906;9.058;2023-03-23T02:13:15;14.60;99.90
14786;DHT22;7484;49.906;9.058;2023-03-23T02:15:48;14.70;99.90
14786;DHT22;7484;49.906;9.058;2023-03-23T02:18:34;14.70;99.90
14786;DHT22;7484;49.906;9.058;2023-03-23T02:21:25;14.70;99.90
14786;DHT22;7484;49.906;9.058;2023-03-23T02:27:01;14.70;99.90
14786;DHT22;7484;49.906;9.058;2023-03-23T02:29:56;14.60;99.90
14786;DHT22;7484;49.906;9.058;2023-03-23T02:35:37;14.60;99.90
14786;DHT22;7484;49.906;9.058;2023-03-23T02:38:08;14.60;99.90
14786;DHT22;7484;49.906;9.058;2023-03-23T02:40:40;14.60;99.90
14786;DHT22;7484;49.906;9.058;2023-03-23T02:43:09;14.60;99.90
14786;DHT22;7484;49.906;9.058;2023-03-23T02:45:37;14.60;99.90
14786;DHT22;7484;49.906;9.058;2023-03-23T02:48:06;14.60;99.90
14786;DHT22;7484;49.906;9.058;2023-03-23T02:50:36;14.60;99.90
14786;DHT22;7484;49.906;9.058;2023-03-23T02:53:08;14.60;99.90
14786;DHT22;7484;49.906;9.058;2023-03-23T02:55:37;14.60;99.90
14786;DHT22;7484;49.906;9.058;2023-03-23T02:58:06;14.60;99.90
14786;DHT22;7484;49.906;9.058;2023-03-23T03:00:33;14.70;99.90
14786;DHT22;7484;49.906;9.058;2023-03-23T03:03:00;14.60;99.90
14786;DHT22;7484;49.906;9.058;2023-03-23T03:05:37;14.50;99.90
14786;DHT22;7484;49.906;9.058;2023-03-23T03:08:13;14.50;99.90
14786;DHT22;7484;49.906;9.058;2023-03-23T03:10:48;14.50;99.90
14786;DHT22;7484;49.906;9.058;2023-03-23T03:13:25;14.50;99.90
14786;DHT22;7484;49.906;9.058;2023-03-23T03:16:00;14.50;99.90
14786;DHT22;7484;49.906;9.058;2023-03-23T03:18:33;14.50;99.90
14786;DHT22;7484;49.906;9.058;2023-03-23T03:21:06;14.50;99.90
14786;DHT22;7484;49.906;9.058;2023-03-23T03:23:36;14.50;99.90
14786;DHT22;7484;49.906;9.058;2023-03-23T03:26:07;14.50;99.90
14786;DHT22;7484;49.906;9.058;2023-03-23T03:28:47;14.50;99.90
14786;DHT22;7484;49.906;9.058;2023-03-23T03:31:18;14.50;99.90
14786;DHT22;7484;49.906;9.058;2023-03-23T03:33:46;14.40;99.90
14786;DHT22;7484;49.906;9.058;2023-03-23T03:36:18;14.30;99.90
14786;DHT22;7484;49.906;9.058;2023-03-23T03:38:49;14.30;99.90
14786;DHT22;7484;49.906;9.058;2023-03-23T03:41:18;14.20;99.90
14786;DHT22;7484;49.906;9.058;2023-03-23T03:43:46;14.20;99.90
14786;DHT22;7484;49.906;9.058;2023-03-23T03:46:13;14.00;99.90
14786;DHT22;7484;49.906;9.058;2023-03-23T03:48:40;14.00;99.90
14786;DHT22;7484;49.906;9.058;2023-03-23T03:51:07;13.90;99.90
14786;DHT22;7484;49.906;9.058;2023-03-23T03:53:37;13.90;99.90
14786;DHT22;7484;49.906;9.058;2023-03-23T03:56:05;13.90;99.90
14786;DHT22;7484;49.906;9.058;2023-03-23T03:58:37;13.90;99.90
14786;DHT22;7484;49.906;9.058;2023-03-23T04:01:40;14.00;99.90
14786;DHT22;7484;49.906;9.058;2023-03-23T04:04:06;13.90;99.90
14786;DHT22;7484;49.906;9.058;2023-03-23T04:06:35;13.90;99.90
14786;DHT22;7484;49.906;9.058;2023-03-23T04:09:05;13.90;99.90
14786;DHT22;7484;49.906;9.058;2023-03-23T04:11:34;13.90;99.90
14786;DHT22;7484;49.906;9.058;2023-03-23T04:14:23;13.90;99.90
14786;DHT22;7484;49.906;9.058;2023-03-23T04:16:53;13.80;99.90
14786;DHT22;7484;49.906;9.058;2023-03-23T04:19:23;13.70;99.90
14786;DHT22;7484;49.906;9.058;2023-03-23T04:21:50;13.60;99.90
14786;DHT22;7484;49.906;9.058;2023-03-23T04:24:19;13.60;99.90
14786;DHT22;7484;49.906;9.058;2023-03-23T04:26:46;13.60;99.90
14786;DHT22;7484;49.906;9.058;2023-03-23T04:29:21;13.60;99.90
14786;DHT22;7484;49.906;9.058;2023-03-23T04:32:07;13.70;99.90
14786;DHT22;7484;49.906;9.058;2023-03-23T04:34:39;13.80;99.90
14786;DHT22;7484;49.906;9.058;2023-03-23T04:37:06;13.80;99.90
14786;DHT22;7484;49.906;9.058;2023-03-23T04:39:36;13.90;99.90
14786;DHT22;7484;49.906;9.058;2023-03-23T04:42:06;13.80;99.90
14786;DHT22;7484;49.906;9.058;2023-03-23T04:45:04;13.90;99.90
14786;DHT22;7484;49.906;9.058;2023-03-23T04:47:36;14.00;99.90
14786;DHT22;7484;49.906;9.058;2023-03-23T04:50:12;13.80;99.90
14786;DHT22;7484;49.906;9.058;2023-03-23T04:52:40;13.80;99.90
14786;DHT22;7484;49.906;9.058;2023-03-23T04:55:12;13.70;99.90
14786;DHT22;7484;49.906;9.058;2023-03-23T04:57:42;13.80;99.90
14786;DHT22;7484;49.906;9.058;2023-03-23T05:00:28;13.80;99.90
14786;DHT22;7484;49.906;9.058;2023-03-23T05:02:55;13.80;99.90
14786;DHT22;7484;49.906;9.058;2023-03-23T05:05:26;13.80;99.90
14786;DHT22;7484;49.906;9.058;2023-03-23T05:07:56;13.90;99.90
14786;DHT22;7484;49.906;9.058;2023-03-23T05:10:27;13.90;99.90
14786;DHT22;7484;49.906;9.058;2023-03-23T05:12:59;13.90;99.90
14786;DHT22;7484;49.906;9.058;2023-03-23T05:15:26;14.00;99.90
14786;DHT22;7484;49.906;9.058;2023-03-23T05:17:53;14.10;99.90
14786;DHT22;7484;49.906;9.058;2023-03-23T05:20:21;14.10;99.90
14786;DHT22;7484;49.906;9.058;2023-03-23T05:22:50;14.00;99.90
14786;DHT22;7484;49.906;9.058;2023-03-23T05:25:27;14.00;99.90
14786;DHT22;7484;49.906;9.058;2023-03-23T05:28:00;14.10;99.90
14786;DHT22;7484;49.906;9.058;2023-03-23T05:31:06;14.00;99.90
14786;DHT22;7484;49.906;9.058;2023-03-23T05:33:33;14.10;99.90
14786;DHT22;7484;49.906;9.058;2023-03-23T05:36:14;14.10;99.90
14786;DHT22;7484;49.906;9.058;2023-03-23T05:38:59;14.10;99.90
14786;DHT22;7484;49.906;9.058;2023-03-23T05:41:40;14.10;99.90
14786;DHT22;7484;49.906;9.058;2023-03-23T05:44:07;14.10;99.90
14786;DHT22;7484;49.906;9.058;2023-03-23T05:46:46;14.00;99.90
14786;DHT22;7484;49.906;9.058;2023-03-23T05:49:13;14.00;99.90
14786;DHT22;7484;49.906;9.058;2023-03-23T05:51:41;14.00;99.90
14786;DHT22;7484;49.906;9.058;2023-03-23T05:54:08;14.00;99.90
14786;DHT22;7484;49.906;9.058;2023-03-23T05:56:36;14.00;99.90
14786;DHT22;7484;49.906;9.058;2023-03-23T05:59:24;14.00;99.90
14786;DHT22;7484;49.906;9.058;2023-03-23T06:01:54;14.00;99.90
14786;DHT22;7484;49.906;9.058;2023-03-23T06:04:21;13.90;99.90
14786;DHT22;7484;49.906;9.058;2023-03-23T06:07:02;13.80;99.90
14786;DHT22;7484;49.906;9.058;2023-03-23T06:09:29;13.80;99.90
14786;DHT22;7484;49.906;9.058;2023-03-23T06:12:05;13.80;99.90
14786;DHT22;7484;49.906;9.058;2023-03-23T06:14:41;13.80;99.90
14786;DHT22;7484;49.906;9.058;2023-03-23T06:17:09;13.80;99.90
14786;DHT22;7484;49.906;9.058;2023-03-23T06:19:36;13.80;99.90
14786;DHT22;7484;49.906;9.058;2023-03-23T06:22:10;13.70;99.90
14786;DHT22;7484;49.906;9.058;2023-03-23T06:24:55;13.60;99.90
14786;DHT22;7484;49.906;9.058;2023-03-23T06:27:31;13.60;99.90
14786;DHT22;7484;49.906;9.058;2023-03-23T06:30:00;13.60;99.90
14786;DHT22;7484;49.906;9.058;2023-03-23T06:32:28;13.60;99.90
14786;DHT22;7484;49.906;9.058;2023-03-23T06:34:56;13.60;99.90
14786;DHT22;7484;49.906;9.058;2023-03-23T06:37:55;13.50;99.90
14786;DHT22;7484;49.906;9.058;2023-03-23T06:40:44;13.40;99.90
14786;DHT22;7484;49.906;9.058;2023-03-23T06:43:13;13.40;99.90
14786;DHT22;7484;49.906;9.058;2023-03-23T06:45:52;13.40;99.90
14786;DHT22;7484;49.906;9.058;2023-03-23T06:48:38;13.30;99.90
14786;DHT22;7484;49.906;9.058;2023-03-23T06:51:06;13.30;99.90
14786;DHT22;7484;49.906;9.058;2023-03-23T06:53:34;13.20;99.90
14786;DHT22;7484;49.906;9.058;2023-03-23T06:56:02;13.20;99.90
14786;DHT22;7484;49.906;9.058;2023-03-23T06:58:30;13.00;99.90
14786;DHT22;7484;49.906;9.058;2023-03-23T07:00:58;13.00;99.90
14786;DHT22;7484;49.906;9.058;2023-03-23T07:03:33;13.00;99.90
14786;DHT22;7484;49.906;9.058;2023-03-23T07:06:00;12.90;99.90
14786;DHT22;7484;49.906;9.058;2023-03-23T07:08:31;13.00;99.90
14786;DHT22;7484;49.906;9.058;2023-03-23T07:10:58;13.00;99.90
14786;DHT22;7484;49.906;9.058;2023-03-23T07:13:27;12.90;99.90
14786;DHT22;7484;49.906;9.058;2023-03-23T07:15:59;12.90;99.90
14786;DHT22;7484;49.906;9.058;2023-03-23T07:18:27;12.90;99.90
14786;DHT22;7484;49.906;9.058;2023-03-23T07:20:57;12.80;99.90
14786;DHT22;7484;49.906;9.058;2023-03-23T07:23:29;12.70;99.90
14786;DHT22;7484;49.906;9.058;2023-03-23T07:26:03;12.60;99.90
14786;DHT22;7484;49.906;9.058;2023-03-23T07:28:36;12.50;99.90
14786;DHT22;7484;49.906;9.058;2023-03-23T07:31:27;12.40;99.90
14786;DHT22;7484;49.906;9.058;2023-03-23T07:33:55;12.40;99.90
14786;DHT22;7484;49.906;9.058;2023-03-23T07:36:27;12.50;99.90
14786;DHT22;7484;49.906;9.058;2023-03-23T07:38:54;12.50;99.90
14786;DHT22;7484;49.906;9.058;2023-03-23T07:41:22;12.40;99.90
14786;DHT22;7484;49.906;9.058;2023-03-23T07:43:51;12.50;99.90
14786;DHT22;7484;49.906;9.058;2023-03-23T07:46:39;12.50;99.90
14786;DHT22;7484;49.906;9.058;2023-03-23T07:49:11;12.60;99.90
14786;DHT22;7484;49.906;9.058;2023-03-23T07:51:44;12.70;99.90
14786;DHT22;7484;49.906;9.058;2023-03-23T07:54:13;12.80;99.90
14786;DHT22;7484;49.906;9.058;2023-03-23T07:56:59;12.80;99.90
14786;DHT22;7484;49.906;9.058;2023-03-23T07:59:29;12.90;99.90
14786;DHT22;7484;49.906;9.058;2023-03-23T08:01:59;13.00;99.90
14786;DHT22;7484;49.906;9.058;2023-03-23T08:04:41;13.10;99.90
14786;DHT22;7484;49.906;9.058;2023-03-23T08:07:43;13.10;99.90
14786;DHT22;7484;49.906;9.058;2023-03-23T08:10:33;13.20;99.90
14786;DHT22;7484;49.906;9.058;2023-03-23T08:13:10;13.20;99.90
14786;DHT22;7484;49.906;9.058;2023-03-23T08:15:51;13.20;99.90
14786;DHT22;7484;49.906;9.058;2023-03-23T08:18:32;13.20;99.90
14786;DHT22;7484;49.906;9.058;2023-03-23T08:21:24;13.20;99.90
14786;DHT22;7484;49.906;9.058;2023-03-23T08:24:24;13.10;99.90
14786;DHT22;7484;49.906;9.058;2023-03-23T08:26:59;13.10;99.90
14786;DHT22;7484;49.906;9.058;2023-03-23T08:29:31;13.20;99.90
14786;DHT22;7484;49.906;9.058;2023-03-23T08:32:34;13.40;99.90
14786;DHT22;7484;49.906;9.058;2023-03-23T08:35:21;13.40;99.90
14786;DHT22;7484;49.906;9.058;2023-03-23T08:38:04;13.30;99.90
14786;DHT22;7484;49.906;9.058;2023-03-23T08:40:50;13.40;99.90
14786;DHT22;7484;49.906;9.058;2023-03-23T08:43:36;13.50;99.90
14786;DHT22;7484;49.906;9.058;2023-03-23T08:46:22;13.50;99.90
14786;DHT22;7484;49.906;9.058;2023-03-23T08:49:07;13.60;99.90
14786;DHT22;7484;49.906;9.058;2023-03-23T08:52:08;13.50;99.90
14786;DHT22;7484;49.906;9.058;2023-03-23T08:54:51;13.50;99.90
14786;DHT22;7484;49.906;9.058;2023-03-23T08:57:21;13.60;99.90
14786;DHT22;7484;49.906;9.058;2023-03-23T09:00:12;13.50;99.90
14786;DHT22;7484;49.906;9.058;2023-03-23T09:03:01;13.50;99.90
14786;DHT22;7484;49.906;9.058;2023-03-23T09:05:47;13.50;99.90
14786;DHT22;7484;49.906;9.058;2023-03-23T09:08:24;13.50;99.90
14786;DHT22;7484;49.906;9.058;2023-03-23T09:10:50;13.50;99.90
14786;DHT22;7484;49.906;9.058;2023-03-23T09:13:17;13.60;99.90
14786;DHT22;7484;49.906;9.058;2023-03-23T09:15:44;13.60;99.90
14786;DHT22;7484;49.906;9.058;2023-03-23T09:18:11;13.70;99.90
14786;DHT22;7484;49.906;9.058;2023-03-23T09:20:38;13.60;99.90
14786;DHT22;7484;49.906;9.058;2023-03-23T09:23:04;13.70;99.90
14786;DHT22;7484;49.906;9.058;2023-03-23T09:25:33;13.70;99.90
14786;DHT22;7484;49.906;9.058;2023-03-23T09:28:00;13.60;99.90
14786;DHT22;7484;49.906;9.058;2023-03-23T09:30:28;13.60;99.90
14786;DHT22;7484;49.906;9.058;2023-03-23T09:32:56;13.60;99.90
14786;DHT22;7484;49.906;9.058;2023-03-23T09:35:26;13.40;99.90
14786;DHT22;7484;49.906;9.058;2023-03-23T09:37:54;13.20;99.90
14786;DHT22;7484;49.906;9.058;2023-03-23T09:40:22;13.20;99.90
14786;DHT22;7484;49.906;9.058;2023-03-23T09:43:13;13.30;99.90
14786;DHT22;7484;49.906;9.058;2023-03-23T09:45:45;13.30;99.90
14786;DHT22;7484;49.906;9.058;2023-03-23T09:51:17;13.30;99.90
14786;DHT22;7484;49.906;9.058;2023-03-23T09:53:49;13.30;99.90
14786;DHT22;7484;49.906;9.058;2023-03-23T09:56:17;13.30;99.90
14786;DHT22;7484;49.906;9.058;2023-03-23T09:58:51;13.30;99.90
14786;DHT22;7484;49.906;9.058;2023-03-23T10:01:23;13.40;99.90
14786;DHT22;7484;49.906;9.058;2023-03-23T10:03:58;13.50;99.90
14786;DHT22;7484;49.906;9.058;2023-03-23T10:06:27;13.50;99.90
14786;DHT22;7484;49.906;9.058;2023-03-23T10:08:57;13.70;99.90
14786;DHT22;7484;49.906;9.058;2023-03-23T10:11:38;14.00;99.90
14786;DHT22;7484;49.906;9.058;2023-03-23T10:14:16;14.20;99.90
14786;DHT22;7484;49.906;9.058;2023-03-23T10:16:57;14.30;99.90
14786;DHT22;7484;49.906;9.058;2023-03-23T10:19:29;14.50;99.90
14786;DHT22;7484;49.906;9.058;2023-03-23T10:22:02;14.50;99.90
14786;DHT22;7484;49.906;9.058;2023-03-23T10:24:34;14.40;99.90
14786;DHT22;7484;49.906;9.058;2023-03-23T10:27:10;14.30;99.90
14786;DHT22;7484;49.906;9.058;2023-03-23T10:29:43;14.30;99.90
14786;DHT22;7484;49.906;9.058;2023-03-23T10:32:14;14.30;99.90
14786;DHT22;7484;49.906;9.058;2023-03-23T10:34:44;14.50;99.90
14786;DHT22;7484;49.906;9.058;2023-03-23T10:37:14;14.60;99.90
14786;DHT22;7484;49.906;9.058;2023-03-23T10:39:49;14.70;99.90
14786;DHT22;7484;49.906;9.058;2023-03-23T10:42:25;14.90;99.90
14786;DHT22;7484;49.906;9.058;2023-03-23T10:44:54;15.00;99.90
14786;DHT22;7484;49.906;9.058;2023-03-23T10:47:22;15.00;99.90
14786;DHT22;7484;49.906;9.058;2023-03-23T10:49:53;15.00;99.90
14786;DHT22;7484;49.906;9.058;2023-03-23T10:52:29;15.10;99.90
14786;DHT22;7484;49.906;9.058;2023-03-23T10:55:00;15.10;99.90
14786;DHT22;7484;49.906;9.058;2023-03-23T10:57:29;14.90;99.90
14786;DHT22;7484;49.906;9.058;2023-03-23T11:00:04;14.80;99.90
14786;DHT22;7484;49.906;9.058;2023-03-23T11:02:38;14.80;99.90
14786;DHT22;7484;49.906;9.058;2023-03-23T11:05:13;14.90;99.90
14786;DHT22;7484;49.906;9.058;2023-03-23T11:07:48;14.70;99.90
14786;DHT22;7484;49.906;9.058;2023-03-23T11:10:21;14.60;99.90
14786;DHT22;7484;49.906;9.058;2023-03-23T11:12:49;14.70;99.90
14786;DHT22;7484;49.906;9.058;2023-03-23T11:15:36;14.60;99.90
14786;DHT22;7484;49.906;9.058;2023-03-23T11:18:08;14.50;99.90
14786;DHT22;7484;49.906;9.058;2023-03-23T11:20:37;14.50;99.90
14786;DHT22;7484;49.906;9.058;2023-03-23T11:23:10;14.50;99.90
14786;DHT22;7484;49.906;9.058;2023-03-23T11:25:55;14.40;99.90
14786;DHT22;7484;49.906;9.058;2023-03-23T11:28:28;14.30;99.90
14786;DHT22;7484;49.906;9.058;2023-03-23T11:30:57;14.20;99.90
14786;DHT22;7484;49.906;9.058;2023-03-23T11:33:25;14.10;99.90
14786;DHT22;7484;49.906;9.058;2023-03-23T11:35:55;14.10;99.90
14786;DHT22;7484;49.906;9.058;2023-03-23T11:38:23;14.20;99.90
14786;DHT22;7484;49.906;9.058;2023-03-23T11:40:53;14.40;99.90
14786;DHT22;7484;49.906;9.058;2023-03-23T11:43:22;14.50;99.90
14786;DHT22;7484;49.906;9.058;2023-03-23T11:45:58;14.50;99.90
14786;DHT22;7484;49.906;9.058;2023-03-23T11:48:31;14.70;99.90
14786;DHT22;7484;49.906;9.058;2023-03-23T11:51:01;14.60;99.90
14786;DHT22;7484;49.906;9.058;2023-03-23T11:53:37;14.60;99.90
14786;DHT22;7484;49.906;9.058;2023-03-23T11:56:13;14.60;99.90
14786;DHT22;7484;49.906;9.058;2023-03-23T11:58:42;14.80;99.90
14786;DHT22;7484;49.906;9.058;2023-03-23T12:01:21;14.90;99.90
14786;DHT22;7484;49.906;9.058;2023-03-23T12:04:20;14.90;99.90
14786;DHT22;7484;49.906;9.058;2023-03-23T12:06:57;14.90;99.90
14786;DHT22;7484;49.906;9.058;2023-03-23T12:09:34;14.80;99.90
14786;DHT22;7484;49.906;9.058;2023-03-23T12:12:12;14.90;99.90
14786;DHT22;7484;49.906;9.058;2023-03-23T12:14:46;15.00;99.90
14786;DHT22;7484;49.906;9.058;2023-03-23T12:17:22;15.00;99.90
14786;DHT22;7484;49.906;9.058;2023-03-23T12:20:00;15.10;99.90
14786;DHT22;7484;49.906;9.058;2023-03-23T12:22:43;14.90;99.90
14786;DHT22;7484;49.906;9.058;2023-03-23T12:25:30;14.90;99.90
14786;DHT22;7484;49.906;9.058;2023-03-23T12:28:03;14.80;99.90
14786;DHT22;7484;49.906;9.058;2023-03-23T12:30:35;14.80;99.90
14786;DHT22;7484;49.906;9.058;2023-03-23T12:33:18;14.80;99.90
14786;DHT22;7484;49.906;9.058;2023-03-23T12:35:59;14.70;99.90
14786;DHT22;7484;49.906;9.058;2023-03-23T12:38:50;14.70;99.90
14786;DHT22;7484;49.906;9.058;2023-03-23T12:41:21;14.40;99.90
14786;DHT22;7484;49.906;9.058;2023-03-23T12:43:52;14.40;99.90
14786;DHT22;7484;49.906;9.058;2023-03-23T12:49:35;14.40;99.90
14786;DHT22;7484;49.906;9.058;2023-03-23T12:52:10;14.40;99.90
14786;DHT22;7484;49.906;9.058;2023-03-23T12:54:42;14.50;99.90
14786;DHT22;7484;49.906;9.058;2023-03-23T12:57:19;14.50;99.90
14786;DHT22;7484;49.906;9.058;2023-03-23T12:59:51;14.90;99.90
14786;DHT22;7484;49.906;9.058;2023-03-23T13:02:22;15.10;99.90
14786;DHT22;7484;49.906;9.058;2023-03-23T13:04:57;15.30;99.90
14786;DHT22;7484;49.906;9.058;2023-03-23T13:07:28;15.50;99.90
14786;DHT22;7484;49.906;9.058;2023-03-23T13:10:03;15.50;99.90
14786;DHT22;7484;49.906;9.058;2023-03-23T13:12:31;15.50;99.90
14786;DHT22;7484;49.906;9.058;2023-03-23T13:15:18;15.60;99.90
14786;DHT22;7484;49.906;9.058;2023-03-23T13:17:51;15.80;99.90
14786;DHT22;7484;49.906;9.058;2023-03-23T13:20:38;15.90;99.90
14786;DHT22;7484;49.906;9.058;2023-03-23T13:23:11;16.00;99.90
14786;DHT22;7484;49.906;9.058;2023-03-23T13:25:47;16.00;99.90
14786;DHT22;7484;49.906;9.058;2023-03-23T13:28:16;15.80;99.90
14786;DHT22;7484;49.906;9.058;2023-03-23T13:31:10;15.60;99.90
14786;DHT22;7484;49.906;9.058;2023-03-23T13:33:38;15.50;99.90
14786;DHT22;7484;49.906;9.058;2023-03-23T13:36:09;15.60;99.90
14786;DHT22;7484;49.906;9.058;2023-03-23T13:38:36;15.70;99.90
14786;DHT22;7484;49.906;9.058;2023-03-23T13:41:09;15.80;99.90
14786;DHT22;7484;49.906;9.058;2023-03-23T13:43:38;15.60;99.90
14786;DHT22;7484;49.906;9.058;2023-03-23T13:46:11;15.60;99.90
14786;DHT22;7484;49.906;9.058;2023-03-23T13:48:44;15.60;99.90
14786;DHT22;7484;49.906;9.058;2023-03-23T13:51:32;15.50;99.90
14786;DHT22;7484;49.906;9.058;2023-03-23T13:54:13;15.70;99.90
14786;DHT22;7484;49.906;9.058;2023-03-23T13:56:42;15.60;99.90
14786;DHT22;7484;49.906;9.058;2023-03-23T13:59:14;15.70;99.90
14786;DHT22;7484;49.906;9.058;2023-03-23T14:01:41;15.60;99.90
14786;DHT22;7484;49.906;9.058;2023-03-23T14:04:13;15.60;99.90
14786;DHT22;7484;49.906;9.058;2023-03-23T14:06:43;15.50;99.90
14786;DHT22;7484;49.906;9.058;2023-03-23T14:09:17;15.50;99.90
14786;DHT22;7484;49.906;9.058;2023-03-23T14:11:48;15.40;99.90
14786;DHT22;7484;49.906;9.058;2023-03-23T14:14:22;15.50;99.90
14786;DHT22;7484;49.906;9.058;2023-03-23T14:16:50;15.40;99.90
14786;DHT22;7484;49.906;9.058;2023-03-23T14:19:20;15.50;99.90
14786;DHT22;7484;49.906;9.058;2023-03-23T14:21:55;15.50;99.90
14786;DHT22;7484;49.906;9.058;2023-03-23T14:24:24;15.60;99.90
14786;DHT22;7484;49.906;9.058;2023-03-23T14:26:52;15.60;99.90
14786;DHT22;7484;49.906;9.058;2023-03-23T14:29:20;15.60;99.90
14786;DHT22;7484;49.906;9.058;2023-03-23T14:31:53;15.40;99.90
14786;DHT22;7484;49.906;9.058;2023-03-23T14:34:22;15.50;99.90
14786;DHT22;7484;49.906;9.058;2023-03-23T14:36:53;15.30;99.90
14786;DHT22;7484;49.906;9.058;2023-03-23T14:39:24;15.30;99.90
14786;DHT22;7484;49.906;9.058;2023-03-23T14:41:53;15.20;99.90
14786;DHT22;7484;49.906;9.058;2023-03-23T14:44:24;15.10;99.90
14786;DHT22;7484;49.906;9.058;2023-03-23T14:46:52;15.00;99.90
14786;DHT22;7484;49.906;9.058;2023-03-23T14:49:27;15.00;99.90
14786;DHT22;7484;49.906;9.058;2023-03-23T14:51:56;15.10;99.90
14786;DHT22;7484;49.906;9.058;2023-03-23T14:54:25;15.10;99.90
14786;DHT22;7484;49.906;9.058;2023-03-23T14:56:52;14.90;99.90
14786;DHT22;7484;49.906;9.058;2023-03-23T14:59:19;15.10;99.90
14786;DHT22;7484;49.906;9.058;2023-03-23T15:01:47;15.20;99.90
14786;DHT22;7484;49.906;9.058;2023-03-23T15:04:17;15.20;99.90
14786;DHT22;7484;49.906;9.058;2023-03-23T15:06:51;15.10;99.90
14786;DHT22;7484;49.906;9.058;2023-03-23T15:09:23;14.90;99.90
14786;DHT22;7484;49.906;9.058;2023-03-23T15:11:54;15.00;99.90
14786;DHT22;7484;49.906;9.058;2023-03-23T15:14:23;15.00;99.90
14786;DHT22;7484;49.906;9.058;2023-03-23T15:16:52;14.90;99.90
14786;DHT22;7484;49.906;9.058;2023-03-23T15:19:22;15.00;99.90
14786;DHT22;7484;49.906;9.058;2023-03-23T15:21:52;15.00;99.90
14786;DHT22;7484;49.906;9.058;2023-03-23T15:24:27;15.00;99.90
14786;DHT22;7484;49.906;9.058;2023-03-23T15:27:09;14.90;99.90
14786;DHT22;7484;49.906;9.058;2023-03-23T15:29:46;14.80;99.90
14786;DHT22;7484;49.906;9.058;2023-03-23T15:32:19;14.90;99.90
14786;DHT22;7484;49.906;9.058;2023-03-23T15:34:46;14.80;99.90
14786;DHT22;7484;49.906;9.058;2023-03-23T15:37:19;14.90;99.90
14786;DHT22;7484;49.906;9.058;2023-03-23T15:39:47;14.90;99.90
14786;DHT22;7484;49.906;9.058;2023-03-23T15:42:21;14.90;99.90
14786;DHT22;7484;49.906;9.058;2023-03-23T15:44:56;14.90;99.90
14786;DHT22;7484;49.906;9.058;2023-03-23T15:47:34;14.90;99.90
14786;DHT22;7484;49.906;9.058;2023-03-23T15:50:04;14.80;99.90
14786;DHT22;7484;49.906;9.058;2023-03-23T15:52:34;14.80;99.90
14786;DHT22;7484;49.906;9.058;2023-03-23T15:55:02;14.80;99.90
14786;DHT22;7484;49.906;9.058;2023-03-23T15:57:29;14.70;99.90
14786;DHT22;7484;49.906;9.058;2023-03-23T15:59:55;14.60;99.90
14786;DHT22;7484;49.906;9.058;2023-03-23T16:02:23;14.50;99.90
14786;DHT22;7484;49.906;9.058;2023-03-23T16:04:51;14.50;99.90
14786;DHT22;7484;49.906;9.058;2023-03-23T16:07:22;14.50;99.90
14786;DHT22;7484;49.906;9.058;2023-03-23T16:09:49;14.40;99.90
14786;DHT22;7484;49.906;9.058;2023-03-23T16:12:17;14.40;99.90
14786;DHT22;7484;49.906;9.058;2023-03-23T16:14:44;14.40;99.90
14786;DHT22;7484;49.906;9.058;2023-03-23T16:17:12;14.40;99.90
14786;DHT22;7484;49.906;9.058;2023-03-23T16:19:40;14.40;99.90
14786;DHT22;7484;49.906;9.058;2023-03-23T16:22:08;14.50;99.90
14786;DHT22;7484;49.906;9.058;2023-03-23T16:24:35;14.60;99.90
14786;DHT22;7484;49.906;9.058;2023-03-23T16:27:02;14.60;99.90
14786;DHT22;7484;49.906;9.058;2023-03-23T16:29:30;14.60;99.90
14786;DHT22;7484;49.906;9.058;2023-03-23T16:31:57;14.70;99.90
14786;DHT22;7484;49.906;9.058;2023-03-23T16:34:23;14.70;99.90